Ana Sayfa
METAR-TAF:

METAR-TAF

Havaalanları :

Narathiwat, Tayland

Enlem: 6-31-12N, Boylam: 101-44-36E, yükseklik: 5 m

Güncel hava durumu gözlemi

Rapor saat 04:00 UTC de 42 dakika önce yapıldı.
Rüzgar doğu/kuzeydoğudan 8 kt, kuzey/kuzeydoğu ve doğu/güneydoğu arasında değişken
Sıcaklık 32°C
Nem 67%
Basınç 1010 hPa
Görüş mesafesi 10 km veya daha fazla
2200 ft yükseklikte az bulutlu

METAR: VTSC 190400Z 07008KT 030V120 9999 FEW022 32/25 Q1010 NOSIG

Saat: 11:42 (04:42 UTC)

Tahmin

Rapor saat 23:00 UTC de 5 saat ve 42 dakika önce yapıldı.
Ayın 19'si saat 00 UTC'den ayın 19'si saat 24 UTC'ye kadar geçerli Tahmin
Rüzgar güneydan 3 kt
Görüş mesafesi 10 km veya daha fazla
2000 ft yükseklikte az bulutlu
Dönüşüyor
ayın 19'si saat 04 UTC'den ayın 19'si saat 06 UTC'ye kadar
Rüzgar doğudan 10 kt
Dönüşüyor
ayın 19'si saat 13 UTC'den ayın 19'si saat 15 UTC'ye kadar
Rüzgar güneydan 3 kt

TAF: VTSC 182300Z 1900/1924 19003KT 9999 FEW020 BECMG 1904/1906 08010KT BECMG 1913/1915 19003KT

4.000'den fazla havaalanı için hava durumu gözlemleri ve tahminleri (METAR ve TAF raporları).

Kullanılabilir istasyonlar harita üzerinde sarı ve kırmızı noktalarla gösterilir.

İstasyonun adını görmek için fareyi noktanın üzerinde gezdirin.

Sonrasında hava gözlem ve tahminlerini görmek için tıklayın.

Haritayı değiştirmek için: yaklaştırmak için siyah artı işaretli yeşil düğmeye ve uzaklaştırmak için de eksi işaretli düğmeye hızla tıklayın; bitişik haritalar için yeşil okları kullanın.


METAR-TAF: